sensor_id;sensor_type;location;lat;lon;timestamp;P1;durP1;ratioP1;P2;durP2;ratioP2
49962;SDS011;36180;57.678;11.910;2022-10-26T00:00:43;10.65;;;2.20;;
49962;SDS011;36180;57.678;11.910;2022-10-26T00:03:12;12.70;;;2.10;;
49962;SDS011;36180;57.678;11.910;2022-10-26T00:05:39;14.02;;;2.20;;
49962;SDS011;36180;57.678;11.910;2022-10-26T00:08:06;14.27;;;2.45;;
49962;SDS011;36180;57.678;11.910;2022-10-26T00:10:33;13.68;;;2.63;;
49962;SDS011;36180;57.678;11.910;2022-10-26T00:13:00;8.75;;;1.90;;
49962;SDS011;36180;57.678;11.910;2022-10-26T00:15:28;9.38;;;1.75;;
49962;SDS011;36180;57.678;11.910;2022-10-26T00:17:55;7.72;;;1.77;;
49962;SDS011;36180;57.678;11.910;2022-10-26T00:20:23;10.30;;;1.95;;
49962;SDS011;36180;57.678;11.910;2022-10-26T00:22:50;8.48;;;1.92;;
49962;SDS011;36180;57.678;11.910;2022-10-26T00:25:17;8.27;;;1.77;;
49962;SDS011;36180;57.678;11.910;2022-10-26T00:27:44;12.65;;;1.88;;
49962;SDS011;36180;57.678;11.910;2022-10-26T00:30:11;9.93;;;1.60;;
49962;SDS011;36180;57.678;11.910;2022-10-26T00:32:38;9.90;;;1.65;;
49962;SDS011;36180;57.678;11.910;2022-10-26T00:35:05;13.30;;;2.28;;
49962;SDS011;36180;57.678;11.910;2022-10-26T00:37:33;16.05;;;2.10;;
49962;SDS011;36180;57.678;11.910;2022-10-26T00:40:01;14.27;;;2.00;;
49962;SDS011;36180;57.678;11.910;2022-10-26T00:42:27;11.85;;;1.70;;
49962;SDS011;36180;57.678;11.910;2022-10-26T00:44:58;14.98;;;2.17;;
49962;SDS011;36180;57.678;11.910;2022-10-26T00:47:32;15.52;;;2.60;;
49962;SDS011;36180;57.678;11.910;2022-10-26T00:50:03;11.85;;;1.80;;
49962;SDS011;36180;57.678;11.910;2022-10-26T00:52:35;15.15;;;2.38;;
49962;SDS011;36180;57.678;11.910;2022-10-26T00:55:03;8.13;;;1.70;;
49962;SDS011;36180;57.678;11.910;2022-10-26T00:57:31;10.45;;;2.35;;
49962;SDS011;36180;57.678;11.910;2022-10-26T00:59:58;9.63;;;2.00;;
49962;SDS011;36180;57.678;11.910;2022-10-26T01:02:25;12.07;;;1.95;;
49962;SDS011;36180;57.678;11.910;2022-10-26T01:04:52;12.57;;;2.47;;
49962;SDS011;36180;57.678;11.910;2022-10-26T01:07:20;7.65;;;1.60;;
49962;SDS011;36180;57.678;11.910;2022-10-26T01:09:48;12.18;;;2.15;;
49962;SDS011;36180;57.678;11.910;2022-10-26T01:12:15;7.47;;;1.73;;
49962;SDS011;36180;57.678;11.910;2022-10-26T01:14:42;9.02;;;1.70;;
49962;SDS011;36180;57.678;11.910;2022-10-26T01:17:13;6.82;;;1.67;;
49962;SDS011;36180;57.678;11.910;2022-10-26T01:22:54;8.95;;;1.83;;
49962;SDS011;36180;57.678;11.910;2022-10-26T01:28:12;11.07;;;1.70;;
49962;SDS011;36180;57.678;11.910;2022-10-26T01:30:48;12.07;;;1.95;;
49962;SDS011;36180;57.678;11.910;2022-10-26T01:33:20;8.65;;;1.95;;
49962;SDS011;36180;57.678;11.910;2022-10-26T01:35:59;11.07;;;1.95;;
49962;SDS011;36180;57.678;11.910;2022-10-26T01:38:30;10.70;;;1.80;;
49962;SDS011;36180;57.678;11.910;2022-10-26T01:41:02;15.90;;;2.10;;
49962;SDS011;36180;57.678;11.910;2022-10-26T01:43:34;10.75;;;2.22;;
49962;SDS011;36180;57.678;11.910;2022-10-26T01:46:03;12.02;;;1.80;;
49962;SDS011;36180;57.678;11.910;2022-10-26T01:48:31;13.63;;;3.30;;
49962;SDS011;36180;57.678;11.910;2022-10-26T01:50:59;12.02;;;2.30;;
49962;SDS011;36180;57.678;11.910;2022-10-26T01:53:27;10.93;;;1.77;;
49962;SDS011;36180;57.678;11.910;2022-10-26T01:55:54;11.95;;;1.90;;
49962;SDS011;36180;57.678;11.910;2022-10-26T01:58:38;11.00;;;1.80;;
49962;SDS011;36180;57.678;11.910;2022-10-26T02:01:25;9.63;;;1.58;;
49962;SDS011;36180;57.678;11.910;2022-10-26T02:04:10;10.10;;;2.45;;
49962;SDS011;36180;57.678;11.910;2022-10-26T02:06:48;6.35;;;1.63;;
49962;SDS011;36180;57.678;11.910;2022-10-26T02:09:19;6.95;;;1.70;;
49962;SDS011;36180;57.678;11.910;2022-10-26T02:11:51;9.30;;;1.83;;
49962;SDS011;36180;57.678;11.910;2022-10-26T02:14:19;7.53;;;1.40;;
49962;SDS011;36180;57.678;11.910;2022-10-26T02:16:54;5.07;;;1.60;;
49962;SDS011;36180;57.678;11.910;2022-10-26T02:19:28;11.73;;;2.13;;
49962;SDS011;36180;57.678;11.910;2022-10-26T02:21:59;7.13;;;2.50;;
49962;SDS011;36180;57.678;11.910;2022-10-26T02:24:29;13.50;;;1.98;;
49962;SDS011;36180;57.678;11.910;2022-10-26T02:26:58;9.43;;;1.50;;
49962;SDS011;36180;57.678;11.910;2022-10-26T02:29:25;11.18;;;2.03;;
49962;SDS011;36180;57.678;11.910;2022-10-26T02:31:57;9.10;;;1.65;;
49962;SDS011;36180;57.678;11.910;2022-10-26T02:34:26;11.50;;;2.00;;
49962;SDS011;36180;57.678;11.910;2022-10-26T02:36:54;12.35;;;2.10;;
49962;SDS011;36180;57.678;11.910;2022-10-26T02:39:23;10.45;;;1.40;;
49962;SDS011;36180;57.678;11.910;2022-10-26T02:41:51;9.40;;;1.95;;
49962;SDS011;36180;57.678;11.910;2022-10-26T02:44:20;11.75;;;1.65;;
49962;SDS011;36180;57.678;11.910;2022-10-26T02:46:49;6.32;;;1.50;;
49962;SDS011;36180;57.678;11.910;2022-10-26T02:49:18;12.25;;;1.80;;
49962;SDS011;36180;57.678;11.910;2022-10-26T02:51:46;10.40;;;2.20;;
49962;SDS011;36180;57.678;11.910;2022-10-26T02:54:17;8.25;;;1.90;;
49962;SDS011;36180;57.678;11.910;2022-10-26T02:56:50;12.30;;;1.65;;
49962;SDS011;36180;57.678;11.910;2022-10-26T02:59:19;6.30;;;1.20;;
49962;SDS011;36180;57.678;11.910;2022-10-26T03:01:48;6.05;;;1.08;;
49962;SDS011;36180;57.678;11.910;2022-10-26T03:04:15;10.40;;;1.60;;
49962;SDS011;36180;57.678;11.910;2022-10-26T03:06:51;11.48;;;1.52;;
49962;SDS011;36180;57.678;11.910;2022-10-26T03:09:19;7.03;;;1.20;;
49962;SDS011;36180;57.678;11.910;2022-10-26T03:11:46;5.97;;;1.10;;
49962;SDS011;36180;57.678;11.910;2022-10-26T03:14:13;9.45;;;1.27;;
49962;SDS011;36180;57.678;11.910;2022-10-26T03:16:40;7.18;;;1.60;;
49962;SDS011;36180;57.678;11.910;2022-10-26T03:19:07;6.68;;;0.95;;
49962;SDS011;36180;57.678;11.910;2022-10-26T03:21:34;6.53;;;1.17;;
49962;SDS011;36180;57.678;11.910;2022-10-26T03:24:02;7.85;;;1.23;;
49962;SDS011;36180;57.678;11.910;2022-10-26T03:26:29;9.02;;;1.17;;
49962;SDS011;36180;57.678;11.910;2022-10-26T03:28:56;5.63;;;1.50;;
49962;SDS011;36180;57.678;11.910;2022-10-26T03:31:23;7.88;;;1.55;;
49962;SDS011;36180;57.678;11.910;2022-10-26T03:33:50;7.57;;;1.15;;
49962;SDS011;36180;57.678;11.910;2022-10-26T03:36:17;11.35;;;1.85;;
49962;SDS011;36180;57.678;11.910;2022-10-26T03:38:43;6.53;;;1.23;;
49962;SDS011;36180;57.678;11.910;2022-10-26T03:41:12;6.93;;;1.20;;
49962;SDS011;36180;57.678;11.910;2022-10-26T03:43:39;8.32;;;1.23;;
49962;SDS011;36180;57.678;11.910;2022-10-26T03:46:06;8.00;;;1.23;;
49962;SDS011;36180;57.678;11.910;2022-10-26T03:48:32;7.00;;;1.40;;
49962;SDS011;36180;57.678;11.910;2022-10-26T03:50:59;11.88;;;1.48;;
49962;SDS011;36180;57.678;11.910;2022-10-26T03:53:26;7.25;;;1.27;;
49962;SDS011;36180;57.678;11.910;2022-10-26T03:55:53;7.13;;;1.30;;
49962;SDS011;36180;57.678;11.910;2022-10-26T03:58:21;6.15;;;1.30;;
49962;SDS011;36180;57.678;11.910;2022-10-26T04:00:49;9.15;;;1.60;;
49962;SDS011;36180;57.678;11.910;2022-10-26T04:03:16;8.93;;;1.77;;
49962;SDS011;36180;57.678;11.910;2022-10-26T04:05:43;6.40;;;1.15;;
49962;SDS011;36180;57.678;11.910;2022-10-26T04:08:10;8.77;;;1.50;;
49962;SDS011;36180;57.678;11.910;2022-10-26T04:10:37;8.95;;;1.52;;
49962;SDS011;36180;57.678;11.910;2022-10-26T04:13:03;6.25;;;1.80;;
49962;SDS011;36180;57.678;11.910;2022-10-26T04:15:32;10.93;;;1.48;;
49962;SDS011;36180;57.678;11.910;2022-10-26T04:17:59;9.20;;;1.50;;
49962;SDS011;36180;57.678;11.910;2022-10-26T04:20:27;8.77;;;1.58;;
49962;SDS011;36180;57.678;11.910;2022-10-26T04:22:55;6.72;;;1.20;;
49962;SDS011;36180;57.678;11.910;2022-10-26T04:25:23;10.30;;;1.42;;
49962;SDS011;36180;57.678;11.910;2022-10-26T04:27:50;8.82;;;1.77;;
49962;SDS011;36180;57.678;11.910;2022-10-26T04:30:17;9.90;;;1.75;;
49962;SDS011;36180;57.678;11.910;2022-10-26T04:32:46;7.55;;;1.25;;
49962;SDS011;36180;57.678;11.910;2022-10-26T04:35:13;11.18;;;2.08;;
49962;SDS011;36180;57.678;11.910;2022-10-26T04:37:40;7.00;;;1.40;;
49962;SDS011;36180;57.678;11.910;2022-10-26T04:40:07;12.10;;;1.40;;
49962;SDS011;36180;57.678;11.910;2022-10-26T04:42:41;9.48;;;1.48;;
49962;SDS011;36180;57.678;11.910;2022-10-26T04:45:09;12.25;;;2.08;;
49962;SDS011;36180;57.678;11.910;2022-10-26T04:47:36;8.80;;;2.17;;
49962;SDS011;36180;57.678;11.910;2022-10-26T04:50:05;15.65;;;2.35;;
49962;SDS011;36180;57.678;11.910;2022-10-26T04:52:32;9.93;;;2.05;;
49962;SDS011;36180;57.678;11.910;2022-10-26T04:54:59;12.60;;;2.55;;
49962;SDS011;36180;57.678;11.910;2022-10-26T04:57:30;10.50;;;2.30;;
49962;SDS011;36180;57.678;11.910;2022-10-26T04:59:57;10.40;;;2.13;;
49962;SDS011;36180;57.678;11.910;2022-10-26T05:02:25;7.72;;;1.83;;
49962;SDS011;36180;57.678;11.910;2022-10-26T05:04:52;8.40;;;2.30;;
49962;SDS011;36180;57.678;11.910;2022-10-26T05:07:20;6.05;;;1.48;;
49962;SDS011;36180;57.678;11.910;2022-10-26T05:09:47;11.45;;;1.58;;
49962;SDS011;36180;57.678;11.910;2022-10-26T05:12:14;11.70;;;1.90;;
49962;SDS011;36180;57.678;11.910;2022-10-26T05:14:41;7.35;;;1.85;;
49962;SDS011;36180;57.678;11.910;2022-10-26T05:17:08;7.10;;;1.30;;
49962;SDS011;36180;57.678;11.910;2022-10-26T05:19:35;7.78;;;1.50;;
49962;SDS011;36180;57.678;11.910;2022-10-26T05:22:02;8.27;;;1.40;;
49962;SDS011;36180;57.678;11.910;2022-10-26T05:24:30;14.00;;;1.95;;
49962;SDS011;36180;57.678;11.910;2022-10-26T05:26:57;4.28;;;1.38;;
49962;SDS011;36180;57.678;11.910;2022-10-26T05:29:24;9.65;;;1.25;;
49962;SDS011;36180;57.678;11.910;2022-10-26T05:31:51;8.52;;;1.70;;
49962;SDS011;36180;57.678;11.910;2022-10-26T05:34:18;11.13;;;1.40;;
49962;SDS011;36180;57.678;11.910;2022-10-26T05:36:45;8.88;;;1.50;;
49962;SDS011;36180;57.678;11.910;2022-10-26T05:39:12;9.85;;;1.83;;
49962;SDS011;36180;57.678;11.910;2022-10-26T05:41:40;7.38;;;2.00;;
49962;SDS011;36180;57.678;11.910;2022-10-26T05:44:07;10.30;;;1.95;;
49962;SDS011;36180;57.678;11.910;2022-10-26T05:46:34;10.25;;;1.75;;
49962;SDS011;36180;57.678;11.910;2022-10-26T05:49:01;7.43;;;1.45;;
49962;SDS011;36180;57.678;11.910;2022-10-26T05:51:28;9.73;;;1.63;;
49962;SDS011;36180;57.678;11.910;2022-10-26T05:53:58;10.30;;;1.85;;
49962;SDS011;36180;57.678;11.910;2022-10-26T05:56:31;8.63;;;1.67;;
49962;SDS011;36180;57.678;11.910;2022-10-26T05:59:02;10.00;;;1.70;;
49962;SDS011;36180;57.678;11.910;2022-10-26T06:01:32;11.70;;;2.08;;
49962;SDS011;36180;57.678;11.910;2022-10-26T06:04:07;6.13;;;1.80;;
49962;SDS011;36180;57.678;11.910;2022-10-26T06:06:41;7.53;;;1.85;;
49962;SDS011;36180;57.678;11.910;2022-10-26T06:09:10;7.55;;;1.40;;
49962;SDS011;36180;57.678;11.910;2022-10-26T06:11:38;7.82;;;1.23;;
49962;SDS011;36180;57.678;11.910;2022-10-26T06:14:07;9.13;;;1.15;;
49962;SDS011;36180;57.678;11.910;2022-10-26T06:16:36;12.50;;;1.65;;
49962;SDS011;36180;57.678;11.910;2022-10-26T06:19:15;7.55;;;1.35;;
49962;SDS011;36180;57.678;11.910;2022-10-26T06:21:54;9.55;;;1.35;;
49962;SDS011;36180;57.678;11.910;2022-10-26T06:24:28;4.55;;;1.30;;
49962;SDS011;36180;57.678;11.910;2022-10-26T06:27:02;8.13;;;1.42;;
49962;SDS011;36180;57.678;11.910;2022-10-26T06:29:39;7.55;;;1.80;;
49962;SDS011;36180;57.678;11.910;2022-10-26T06:32:12;5.93;;;1.30;;
49962;SDS011;36180;57.678;11.910;2022-10-26T06:34:42;6.20;;;1.73;;
49962;SDS011;36180;57.678;11.910;2022-10-26T06:37:10;7.95;;;1.92;;
49962;SDS011;36180;57.678;11.910;2022-10-26T06:39:38;7.70;;;1.58;;
49962;SDS011;36180;57.678;11.910;2022-10-26T06:42:08;6.35;;;1.27;;
49962;SDS011;36180;57.678;11.910;2022-10-26T06:44:37;5.40;;;1.50;;
49962;SDS011;36180;57.678;11.910;2022-10-26T06:47:05;6.10;;;2.10;;
49962;SDS011;36180;57.678;11.910;2022-10-26T06:49:34;9.93;;;1.52;;
49962;SDS011;36180;57.678;11.910;2022-10-26T06:52:04;7.30;;;1.58;;
49962;SDS011;36180;57.678;11.910;2022-10-26T06:54:40;12.07;;;1.50;;
49962;SDS011;36180;57.678;11.910;2022-10-26T06:57:13;9.95;;;1.75;;
49962;SDS011;36180;57.678;11.910;2022-10-26T06:59:43;10.38;;;1.73;;
49962;SDS011;36180;57.678;11.910;2022-10-26T07:02:12;4.55;;;1.30;;
49962;SDS011;36180;57.678;11.910;2022-10-26T07:04:39;5.88;;;1.42;;
49962;SDS011;36180;57.678;11.910;2022-10-26T07:07:07;5.13;;;1.23;;
49962;SDS011;36180;57.678;11.910;2022-10-26T07:09:35;9.50;;;1.58;;
49962;SDS011;36180;57.678;11.910;2022-10-26T07:12:02;6.55;;;1.10;;
49962;SDS011;36180;57.678;11.910;2022-10-26T07:14:29;13.00;;;1.60;;
49962;SDS011;36180;57.678;11.910;2022-10-26T07:16:57;8.68;;;1.50;;
49962;SDS011;36180;57.678;11.910;2022-10-26T07:19:25;7.53;;;1.48;;
49962;SDS011;36180;57.678;11.910;2022-10-26T07:21:52;6.47;;;1.88;;
49962;SDS011;36180;57.678;11.910;2022-10-26T07:24:20;8.10;;;1.23;;
49962;SDS011;36180;57.678;11.910;2022-10-26T07:26:47;11.43;;;2.92;;
49962;SDS011;36180;57.678;11.910;2022-10-26T07:29:14;14.70;;;3.95;;
49962;SDS011;36180;57.678;11.910;2022-10-26T07:31:42;14.68;;;5.88;;
49962;SDS011;36180;57.678;11.910;2022-10-26T07:34:10;8.52;;;2.50;;
49962;SDS011;36180;57.678;11.910;2022-10-26T07:36:37;6.28;;;1.58;;
49962;SDS011;36180;57.678;11.910;2022-10-26T07:39:04;5.63;;;1.50;;
49962;SDS011;36180;57.678;11.910;2022-10-26T07:41:31;6.95;;;1.77;;
49962;SDS011;36180;57.678;11.910;2022-10-26T07:43:59;8.10;;;1.25;;
49962;SDS011;36180;57.678;11.910;2022-10-26T07:46:25;8.70;;;1.45;;
49962;SDS011;36180;57.678;11.910;2022-10-26T07:48:53;9.40;;;1.55;;
49962;SDS011;36180;57.678;11.910;2022-10-26T07:51:21;13.98;;;1.95;;
49962;SDS011;36180;57.678;11.910;2022-10-26T07:53:48;8.80;;;1.80;;
49962;SDS011;36180;57.678;11.910;2022-10-26T07:56:15;9.57;;;1.58;;
49962;SDS011;36180;57.678;11.910;2022-10-26T07:58:42;11.68;;;2.08;;
49962;SDS011;36180;57.678;11.910;2022-10-26T08:01:09;11.25;;;1.67;;
49962;SDS011;36180;57.678;11.910;2022-10-26T08:03:38;8.60;;;1.80;;
49962;SDS011;36180;57.678;11.910;2022-10-26T08:06:05;9.50;;;1.67;;
49962;SDS011;36180;57.678;11.910;2022-10-26T08:08:34;7.38;;;1.80;;
49962;SDS011;36180;57.678;11.910;2022-10-26T08:11:02;6.60;;;1.80;;
49962;SDS011;36180;57.678;11.910;2022-10-26T08:13:29;9.93;;;1.73;;
49962;SDS011;36180;57.678;11.910;2022-10-26T08:15:56;11.05;;;1.80;;
49962;SDS011;36180;57.678;11.910;2022-10-26T08:18:23;7.05;;;1.50;;
49962;SDS011;36180;57.678;11.910;2022-10-26T08:20:50;7.75;;;1.35;;
49962;SDS011;36180;57.678;11.910;2022-10-26T08:23:17;7.68;;;1.42;;
49962;SDS011;36180;57.678;11.910;2022-10-26T08:25:46;8.73;;;1.73;;
49962;SDS011;36180;57.678;11.910;2022-10-26T08:28:12;7.90;;;1.50;;
49962;SDS011;36180;57.678;11.910;2022-10-26T08:30:39;11.70;;;2.20;;
49962;SDS011;36180;57.678;11.910;2022-10-26T08:33:07;5.93;;;1.42;;
49962;SDS011;36180;57.678;11.910;2022-10-26T08:35:35;8.52;;;1.60;;
49962;SDS011;36180;57.678;11.910;2022-10-26T08:38:02;5.82;;;1.70;;
49962;SDS011;36180;57.678;11.910;2022-10-26T08:40:29;6.88;;;1.80;;
49962;SDS011;36180;57.678;11.910;2022-10-26T08:43:00;10.57;;;1.88;;
49962;SDS011;36180;57.678;11.910;2022-10-26T08:45:33;11.07;;;1.77;;
49962;SDS011;36180;57.678;11.910;2022-10-26T08:48:04;8.40;;;1.70;;
49962;SDS011;36180;57.678;11.910;2022-10-26T08:50:35;5.35;;;1.50;;
49962;SDS011;36180;57.678;11.910;2022-10-26T08:53:07;7.55;;;1.27;;
49962;SDS011;36180;57.678;11.910;2022-10-26T08:55:39;8.02;;;1.40;;
49962;SDS011;36180;57.678;11.910;2022-10-26T08:58:12;4.75;;;1.30;;
49962;SDS011;36180;57.678;11.910;2022-10-26T09:00:41;8.43;;;1.20;;
49962;SDS011;36180;57.678;11.910;2022-10-26T09:03:13;10.35;;;1.30;;
49962;SDS011;36180;57.678;11.910;2022-10-26T09:05:45;5.47;;;1.02;;
49962;SDS011;36180;57.678;11.910;2022-10-26T09:08:25;6.35;;;1.40;;
49962;SDS011;36180;57.678;11.910;2022-10-26T09:10:57;7.20;;;1.42;;
49962;SDS011;36180;57.678;11.910;2022-10-26T09:13:34;4.90;;;1.15;;
49962;SDS011;36180;57.678;11.910;2022-10-26T09:16:05;6.25;;;1.30;;
49962;SDS011;36180;57.678;11.910;2022-10-26T09:18:39;7.30;;;1.43;;
49962;SDS011;36180;57.678;11.910;2022-10-26T09:21:17;7.30;;;1.00;;
49962;SDS011;36180;57.678;11.910;2022-10-26T09:23:54;9.20;;;1.27;;
49962;SDS011;36180;57.678;11.910;2022-10-26T09:26:30;3.80;;;1.27;;
49962;SDS011;36180;57.678;11.910;2022-10-26T09:29:01;4.60;;;1.10;;
49962;SDS011;36180;57.678;11.910;2022-10-26T09:31:31;3.72;;;1.02;;
49962;SDS011;36180;57.678;11.910;2022-10-26T09:34:04;4.53;;;1.00;;
49962;SDS011;36180;57.678;11.910;2022-10-26T09:36:32;8.85;;;1.15;;
49962;SDS011;36180;57.678;11.910;2022-10-26T09:39:02;6.57;;;1.17;;
49962;SDS011;36180;57.678;11.910;2022-10-26T09:41:36;6.20;;;0.82;;
49962;SDS011;36180;57.678;11.910;2022-10-26T09:44:07;4.25;;;1.10;;
49962;SDS011;36180;57.678;11.910;2022-10-26T09:46:45;8.75;;;1.25;;
49962;SDS011;36180;57.678;11.910;2022-10-26T09:49:17;6.35;;;1.23;;
49962;SDS011;36180;57.678;11.910;2022-10-26T09:51:46;6.97;;;1.17;;
49962;SDS011;36180;57.678;11.910;2022-10-26T09:54:14;5.05;;;0.90;;
49962;SDS011;36180;57.678;11.910;2022-10-26T09:56:42;4.70;;;1.15;;
49962;SDS011;36180;57.678;11.910;2022-10-26T09:59:11;9.57;;;1.38;;
49962;SDS011;36180;57.678;11.910;2022-10-26T10:01:39;4.13;;;1.02;;
49962;SDS011;36180;57.678;11.910;2022-10-26T10:04:15;3.40;;;0.93;;
49962;SDS011;36180;57.678;11.910;2022-10-26T10:06:46;5.53;;;1.00;;
49962;SDS011;36180;57.678;11.910;2022-10-26T10:09:14;9.38;;;1.15;;
49962;SDS011;36180;57.678;11.910;2022-10-26T10:11:42;3.05;;;1.10;;
49962;SDS011;36180;57.678;11.910;2022-10-26T10:14:15;3.10;;;1.10;;
49962;SDS011;36180;57.678;11.910;2022-10-26T10:16:49;6.25;;;1.70;;
49962;SDS011;36180;57.678;11.910;2022-10-26T10:19:22;6.53;;;1.40;;
49962;SDS011;36180;57.678;11.910;2022-10-26T10:21:51;8.63;;;1.25;;
49962;SDS011;36180;57.678;11.910;2022-10-26T10:24:24;7.75;;;1.38;;
49962;SDS011;36180;57.678;11.910;2022-10-26T10:29:25;4.30;;;1.17;;
49962;SDS011;36180;57.678;11.910;2022-10-26T10:31:56;6.15;;;1.20;;
49962;SDS011;36180;57.678;11.910;2022-10-26T10:34:23;7.75;;;1.40;;
49962;SDS011;36180;57.678;11.910;2022-10-26T10:36:51;4.47;;;1.27;;
49962;SDS011;36180;57.678;11.910;2022-10-26T10:42:01;12.18;;;1.98;;
49962;SDS011;36180;57.678;11.910;2022-10-26T10:44:31;8.38;;;1.50;;
49962;SDS011;36180;57.678;11.910;2022-10-26T10:46:59;8.50;;;2.08;;
49962;SDS011;36180;57.678;11.910;2022-10-26T10:49:26;8.20;;;1.67;;
49962;SDS011;36180;57.678;11.910;2022-10-26T10:51:54;10.05;;;1.42;;
49962;SDS011;36180;57.678;11.910;2022-10-26T10:54:23;8.07;;;1.40;;
49962;SDS011;36180;57.678;11.910;2022-10-26T10:56:53;8.13;;;1.92;;
49962;SDS011;36180;57.678;11.910;2022-10-26T10:59:25;6.90;;;1.20;;
49962;SDS011;36180;57.678;11.910;2022-10-26T11:02:15;5.30;;;1.42;;
49962;SDS011;36180;57.678;11.910;2022-10-26T11:07:51;7.47;;;1.30;;
49962;SDS011;36180;57.678;11.910;2022-10-26T11:10:20;5.63;;;1.17;;
49962;SDS011;36180;57.678;11.910;2022-10-26T11:12:50;3.45;;;1.23;;
49962;SDS011;36180;57.678;11.910;2022-10-26T11:15:21;3.33;;;0.93;;
49962;SDS011;36180;57.678;11.910;2022-10-26T11:17:51;3.42;;;0.93;;
49962;SDS011;36180;57.678;11.910;2022-10-26T11:20:23;5.85;;;1.20;;
49962;SDS011;36180;57.678;11.910;2022-10-26T11:22:57;6.25;;;1.13;;
49962;SDS011;36180;57.678;11.910;2022-10-26T11:25:28;2.90;;;0.90;;
49962;SDS011;36180;57.678;11.910;2022-10-26T11:27:59;5.25;;;1.10;;
49962;SDS011;36180;57.678;11.910;2022-10-26T11:30:29;5.88;;;0.93;;
49962;SDS011;36180;57.678;11.910;2022-10-26T11:32:59;10.23;;;1.67;;
49962;SDS011;36180;57.678;11.910;2022-10-26T11:35:31;7.28;;;1.77;;
49962;SDS011;36180;57.678;11.910;2022-10-26T11:38:03;6.55;;;1.48;;
49962;SDS011;36180;57.678;11.910;2022-10-26T11:43:05;5.18;;;1.60;;
49962;SDS011;36180;57.678;11.910;2022-10-26T11:45:41;5.95;;;1.42;;
49962;SDS011;36180;57.678;11.910;2022-10-26T11:48:11;9.20;;;2.00;;
49962;SDS011;36180;57.678;11.910;2022-10-26T11:50:42;7.30;;;2.22;;
49962;SDS011;36180;57.678;11.910;2022-10-26T11:53:11;7.90;;;2.05;;
49962;SDS011;36180;57.678;11.910;2022-10-26T11:55:40;8.48;;;1.55;;
49962;SDS011;36180;57.678;11.910;2022-10-26T11:58:08;5.07;;;1.52;;
49962;SDS011;36180;57.678;11.910;2022-10-26T12:00:36;10.10;;;1.60;;
49962;SDS011;36180;57.678;11.910;2022-10-26T12:03:10;5.00;;;1.30;;
49962;SDS011;36180;57.678;11.910;2022-10-26T12:05:41;4.00;;;1.45;;
49962;SDS011;36180;57.678;11.910;2022-10-26T12:08:10;4.27;;;1.50;;
49962;SDS011;36180;57.678;11.910;2022-10-26T12:10:40;4.10;;;1.15;;
49962;SDS011;36180;57.678;11.910;2022-10-26T12:13:13;8.70;;;1.77;;
49962;SDS011;36180;57.678;11.910;2022-10-26T12:15:45;8.18;;;1.58;;
49962;SDS011;36180;57.678;11.910;2022-10-26T12:18:15;6.53;;;1.73;;
49962;SDS011;36180;57.678;11.910;2022-10-26T12:20:51;6.18;;;1.58;;
49962;SDS011;36180;57.678;11.910;2022-10-26T12:23:20;7.18;;;1.77;;
49962;SDS011;36180;57.678;11.910;2022-10-26T12:25:48;5.43;;;1.65;;
49962;SDS011;36180;57.678;11.910;2022-10-26T12:28:37;7.28;;;1.67;;
49962;SDS011;36180;57.678;11.910;2022-10-26T12:34:10;5.85;;;1.70;;
49962;SDS011;36180;57.678;11.910;2022-10-26T12:36:48;4.78;;;2.13;;
49962;SDS011;36180;57.678;11.910;2022-10-26T12:39:25;6.75;;;1.80;;
49962;SDS011;36180;57.678;11.910;2022-10-26T12:41:57;6.68;;;1.90;;
49962;SDS011;36180;57.678;11.910;2022-10-26T12:44:31;9.15;;;1.88;;
49962;SDS011;36180;57.678;11.910;2022-10-26T12:47:01;6.53;;;1.60;;
49962;SDS011;36180;57.678;11.910;2022-10-26T12:55:30;6.03;;;1.77;;
49962;SDS011;36180;57.678;11.910;2022-10-26T12:58:29;7.57;;;2.17;;
49962;SDS011;36180;57.678;11.910;2022-10-26T13:04:40;12.18;;;2.70;;
49962;SDS011;36180;57.678;11.910;2022-10-26T13:07:28;11.50;;;2.65;;
49962;SDS011;36180;57.678;11.910;2022-10-26T13:10:00;10.52;;;2.88;;
49962;SDS011;36180;57.678;11.910;2022-10-26T13:12:33;14.68;;;2.85;;
49962;SDS011;36180;57.678;11.910;2022-10-26T13:15:03;10.18;;;2.88;;
49962;SDS011;36180;57.678;11.910;2022-10-26T13:17:31;9.77;;;2.72;;
49962;SDS011;36180;57.678;11.910;2022-10-26T13:20:01;9.60;;;2.92;;
49962;SDS011;36180;57.678;11.910;2022-10-26T13:22:29;11.50;;;3.28;;
49962;SDS011;36180;57.678;11.910;2022-10-26T13:24:57;14.68;;;4.25;;
49962;SDS011;36180;57.678;11.910;2022-10-26T13:27:41;17.05;;;3.72;;
49962;SDS011;36180;57.678;11.910;2022-10-26T13:30:18;11.82;;;3.72;;
49962;SDS011;36180;57.678;11.910;2022-10-26T13:35:58;14.27;;;3.65;;
49962;SDS011;36180;57.678;11.910;2022-10-26T13:38:27;12.32;;;2.92;;
49962;SDS011;36180;57.678;11.910;2022-10-26T13:41:06;11.57;;;2.83;;
49962;SDS011;36180;57.678;11.910;2022-10-26T13:43:40;8.75;;;3.00;;
49962;SDS011;36180;57.678;11.910;2022-10-26T13:46:12;9.30;;;2.63;;
49962;SDS011;36180;57.678;11.910;2022-10-26T13:48:48;7.68;;;2.67;;
49962;SDS011;36180;57.678;11.910;2022-10-26T13:51:17;13.60;;;3.13;;
49962;SDS011;36180;57.678;11.910;2022-10-26T13:53:48;11.50;;;2.72;;
49962;SDS011;36180;57.678;11.910;2022-10-26T13:56:19;9.30;;;2.92;;
49962;SDS011;36180;57.678;11.910;2022-10-26T13:58:51;10.25;;;3.13;;
49962;SDS011;36180;57.678;11.910;2022-10-26T14:01:23;15.25;;;3.22;;
49962;SDS011;36180;57.678;11.910;2022-10-26T14:03:52;13.93;;;3.05;;
49962;SDS011;36180;57.678;11.910;2022-10-26T14:06:21;13.40;;;4.00;;
49962;SDS011;36180;57.678;11.910;2022-10-26T14:08:52;14.82;;;3.17;;
49962;SDS011;36180;57.678;11.910;2022-10-26T14:11:23;11.40;;;2.90;;
49962;SDS011;36180;57.678;11.910;2022-10-26T14:13:59;10.05;;;3.00;;
49962;SDS011;36180;57.678;11.910;2022-10-26T14:16:27;8.32;;;2.78;;
49962;SDS011;36180;57.678;11.910;2022-10-26T14:18:55;10.85;;;2.95;;
49962;SDS011;36180;57.678;11.910;2022-10-26T14:21:24;10.07;;;3.08;;
49962;SDS011;36180;57.678;11.910;2022-10-26T14:23:51;11.80;;;3.65;;
49962;SDS011;36180;57.678;11.910;2022-10-26T14:26:22;12.07;;;3.00;;
49962;SDS011;36180;57.678;11.910;2022-10-26T14:28:50;10.05;;;3.38;;
49962;SDS011;36180;57.678;11.910;2022-10-26T14:31:27;12.98;;;3.42;;
49962;SDS011;36180;57.678;11.910;2022-10-26T14:33:56;8.98;;;3.35;;
49962;SDS011;36180;57.678;11.910;2022-10-26T14:36:27;11.57;;;3.92;;
49962;SDS011;36180;57.678;11.910;2022-10-26T14:38:57;12.10;;;3.97;;
49962;SDS011;36180;57.678;11.910;2022-10-26T14:41:25;16.30;;;5.15;;
49962;SDS011;36180;57.678;11.910;2022-10-26T14:43:53;12.00;;;3.95;;
49962;SDS011;36180;57.678;11.910;2022-10-26T14:46:21;12.10;;;4.60;;
49962;SDS011;36180;57.678;11.910;2022-10-26T14:48:52;15.95;;;5.00;;
49962;SDS011;36180;57.678;11.910;2022-10-26T14:51:26;14.38;;;4.63;;
49962;SDS011;36180;57.678;11.910;2022-10-26T14:53:55;9.73;;;4.43;;
49962;SDS011;36180;57.678;11.910;2022-10-26T14:56:24;15.02;;;5.22;;
49962;SDS011;36180;57.678;11.910;2022-10-26T14:58:54;14.57;;;5.32;;
49962;SDS011;36180;57.678;11.910;2022-10-26T15:01:31;12.52;;;5.40;;
49962;SDS011;36180;57.678;11.910;2022-10-26T15:03:59;17.40;;;5.57;;
49962;SDS011;36180;57.678;11.910;2022-10-26T15:06:41;12.73;;;4.88;;
49962;SDS011;36180;57.678;11.910;2022-10-26T15:09:28;21.60;;;5.90;;
49962;SDS011;36180;57.678;11.910;2022-10-26T15:11:57;16.45;;;5.75;;
49962;SDS011;36180;57.678;11.910;2022-10-26T15:14:27;15.65;;;5.32;;
49962;SDS011;36180;57.678;11.910;2022-10-26T15:16:55;11.55;;;5.40;;
49962;SDS011;36180;57.678;11.910;2022-10-26T15:19:23;21.45;;;6.28;;